Terminal Aerodrome Forecast
Issued by NWS

Home | Current Version | Previous Version | Text Only | Print | Product List | Glossary On
Versions: 1 2 3 4 5 6 7 8 9 10 11 12 13 14 15 16 17 18 19
505
FTUS43 KJKL 100521
TAFSJS
TAF
KSJS 100521Z 1006/1106 27006KT 3SM -SN SCT016 BKN022 OVC035
     FM101200 26008KT P6SM -SHSN OVC025
     FM102300 27009KT P6SM BKN030=

USA.gov is the U.S. government's official web portal to all federal, state and local government web resources and services.